sensor_id;sensor_type;location;lat;lon;timestamp;pressure;altitude;pressure_sealevel;temperature;humidity
25947;BME280;13745;51.470;9.894;2023-03-25T00:01:59;98083.75;;;13.88;61.50
25947;BME280;13745;51.470;9.894;2023-03-25T00:04:48;98093.41;;;13.86;61.47
25947;BME280;13745;51.470;9.894;2023-03-25T00:07:34;98098.56;;;13.88;61.23
25947;BME280;13745;51.470;9.894;2023-03-25T00:10:19;98084.84;;;13.84;61.41
25947;BME280;13745;51.470;9.894;2023-03-25T00:13:05;98081.31;;;13.85;61.38
25947;BME280;13745;51.470;9.894;2023-03-25T00:15:52;98079.72;;;13.83;61.78
25947;BME280;13745;51.470;9.894;2023-03-25T00:18:42;98073.66;;;13.82;61.54
25947;BME280;13745;51.470;9.894;2023-03-25T00:21:27;98074.50;;;13.83;61.49
25947;BME280;13745;51.470;9.894;2023-03-25T00:24:12;98073.66;;;13.82;61.39
25947;BME280;13745;51.470;9.894;2023-03-25T00:27:00;98078.06;;;13.80;61.48
25947;BME280;13745;51.470;9.894;2023-03-25T00:29:46;98076.31;;;13.81;61.57
25947;BME280;13745;51.470;9.894;2023-03-25T00:32:31;98086.81;;;13.79;61.41
25947;BME280;13745;51.470;9.894;2023-03-25T00:35:18;98082.69;;;13.75;61.59
25947;BME280;13745;51.470;9.894;2023-03-25T00:38:03;98084.47;;;13.73;61.68
25947;BME280;13745;51.470;9.894;2023-03-25T00:40:49;98077.66;;;13.70;61.70
25947;BME280;13745;51.470;9.894;2023-03-25T00:43:36;98094.22;;;13.69;61.85
25947;BME280;13745;51.470;9.894;2023-03-25T00:46:22;98085.72;;;13.66;61.87
25947;BME280;13745;51.470;9.894;2023-03-25T00:49:09;98084.88;;;13.65;61.77
25947;BME280;13745;51.470;9.894;2023-03-25T00:51:56;98085.84;;;13.63;62.03
25947;BME280;13745;51.470;9.894;2023-03-25T00:54:42;98095.50;;;13.61;61.90
25947;BME280;13745;51.470;9.894;2023-03-25T00:57:28;98085.16;;;13.59;61.98
25947;BME280;13745;51.470;9.894;2023-03-25T01:00:16;98072.41;;;13.53;62.01
25947;BME280;13745;51.470;9.894;2023-03-25T01:03:02;98077.53;;;13.55;62.14
25947;BME280;13745;51.470;9.894;2023-03-25T01:05:47;98072.34;;;13.55;62.33
25947;BME280;13745;51.470;9.894;2023-03-25T01:08:34;98072.50;;;13.52;62.31
25947;BME280;13745;51.470;9.894;2023-03-25T01:11:22;98076.94;;;13.49;62.55
25947;BME280;13745;51.470;9.894;2023-03-25T01:14:11;98089.94;;;13.49;62.70
25947;BME280;13745;51.470;9.894;2023-03-25T01:16:57;98079.53;;;13.49;62.68
25947;BME280;13745;51.470;9.894;2023-03-25T01:19:45;98078.63;;;13.51;62.71
25947;BME280;13745;51.470;9.894;2023-03-25T01:22:31;98057.00;;;13.48;62.64
25947;BME280;13745;51.470;9.894;2023-03-25T01:25:17;98058.81;;;13.46;62.88
25947;BME280;13745;51.470;9.894;2023-03-25T01:28:03;98061.44;;;13.46;62.83
25947;BME280;13745;51.470;9.894;2023-03-25T01:30:49;98056.22;;;13.46;63.30
25947;BME280;13745;51.470;9.894;2023-03-25T01:33:34;98056.22;;;13.46;62.89
25947;BME280;13745;51.470;9.894;2023-03-25T01:36:19;98055.47;;;13.44;62.89
25947;BME280;13745;51.470;9.894;2023-03-25T01:39:08;98059.81;;;13.44;63.08
25947;BME280;13745;51.470;9.894;2023-03-25T01:41:55;98062.50;;;13.42;63.07
25947;BME280;13745;51.470;9.894;2023-03-25T01:45:10;98060.66;;;13.44;63.31
25947;BME280;13745;51.470;9.894;2023-03-25T01:48:02;98047.00;;;13.39;63.19
25947;BME280;13745;51.470;9.894;2023-03-25T01:50:52;98054.81;;;13.39;63.44
25947;BME280;13745;51.470;9.894;2023-03-25T01:53:38;98060.88;;;13.40;63.09
25947;BME280;13745;51.470;9.894;2023-03-25T01:56:26;98047.09;;;13.38;63.36
25947;BME280;13745;51.470;9.894;2023-03-25T01:59:16;98053.13;;;13.38;63.28
25947;BME280;13745;51.470;9.894;2023-03-25T02:02:04;98051.28;;;13.40;63.29
25947;BME280;13745;51.470;9.894;2023-03-25T02:04:56;98053.97;;;13.39;63.49
25947;BME280;13745;51.470;9.894;2023-03-25T02:07:47;98049.56;;;13.41;63.59
25947;BME280;13745;51.470;9.894;2023-03-25T02:10:33;98046.09;;;13.40;63.39
25947;BME280;13745;51.470;9.894;2023-03-25T02:13:19;98057.38;;;13.41;63.53
25947;BME280;13745;51.470;9.894;2023-03-25T02:16:17;98047.84;;;13.40;63.66
25947;BME280;13745;51.470;9.894;2023-03-25T02:19:26;98058.22;;;13.41;63.44
25947;BME280;13745;51.470;9.894;2023-03-25T02:22:35;98047.81;;;13.41;63.23
25947;BME280;13745;51.470;9.894;2023-03-25T02:25:35;98043.63;;;13.37;63.27
25947;BME280;13745;51.470;9.894;2023-03-25T02:28:32;98041.03;;;13.37;63.49
25947;BME280;13745;51.470;9.894;2023-03-25T02:31:35;98048.91;;;13.36;63.42
25947;BME280;13745;51.470;9.894;2023-03-25T02:34:48;98043.63;;;13.37;63.53
25947;BME280;13745;51.470;9.894;2023-03-25T02:38:00;98035.91;;;13.36;63.61
25947;BME280;13745;51.470;9.894;2023-03-25T02:40:53;98037.75;;;13.34;63.68
25947;BME280;13745;51.470;9.894;2023-03-25T02:43:43;98049.00;;;13.34;63.42
25947;BME280;13745;51.470;9.894;2023-03-25T02:46:30;98037.81;;;13.32;63.43
25947;BME280;13745;51.470;9.894;2023-03-25T02:49:19;98028.28;;;13.31;63.71
25947;BME280;13745;51.470;9.894;2023-03-25T02:52:09;98035.25;;;13.31;63.98
25947;BME280;13745;51.470;9.894;2023-03-25T02:54:59;98037.94;;;13.29;63.56
25947;BME280;13745;51.470;9.894;2023-03-25T02:57:50;98050.13;;;13.29;63.44
25947;BME280;13745;51.470;9.894;2023-03-25T03:00:37;98046.88;;;13.24;63.62
25947;BME280;13745;51.470;9.894;2023-03-25T03:03:23;98051.22;;;13.23;63.56
25947;BME280;13745;51.470;9.894;2023-03-25T03:06:14;98047.94;;;13.19;63.64
25947;BME280;13745;51.470;9.894;2023-03-25T03:09:24;98057.53;;;13.17;63.50
25947;BME280;13745;51.470;9.894;2023-03-25T03:12:27;98049.00;;;13.14;63.61
25947;BME280;13745;51.470;9.894;2023-03-25T03:15:23;98054.38;;;13.11;63.64
25947;BME280;13745;51.470;9.894;2023-03-25T03:18:17;98051.75;;;13.11;63.56
25947;BME280;13745;51.470;9.894;2023-03-25T03:21:12;98043.19;;;13.09;63.63
25947;BME280;13745;51.470;9.894;2023-03-25T03:24:04;98045.78;;;13.09;63.78
25947;BME280;13745;51.470;9.894;2023-03-25T03:26:57;98038.94;;;13.06;63.80
25947;BME280;13745;51.470;9.894;2023-03-25T03:29:47;98026.94;;;13.04;63.97
25947;BME280;13745;51.470;9.894;2023-03-25T03:32:40;98040.00;;;13.02;63.81
25947;BME280;13745;51.470;9.894;2023-03-25T03:35:30;98045.50;;;12.96;63.72
25947;BME280;13745;51.470;9.894;2023-03-25T03:38:19;98048.16;;;12.94;63.77
25947;BME280;13745;51.470;9.894;2023-03-25T03:41:09;98042.19;;;12.92;63.68
25947;BME280;13745;51.470;9.894;2023-03-25T03:43:59;98041.38;;;12.90;63.77
25947;BME280;13745;51.470;9.894;2023-03-25T03:46:50;98050.09;;;12.89;63.92
25947;BME280;13745;51.470;9.894;2023-03-25T03:49:41;98048.44;;;12.88;63.74
25947;BME280;13745;51.470;9.894;2023-03-25T03:52:30;98046.75;;;12.87;64.08
25947;BME280;13745;51.470;9.894;2023-03-25T03:55:19;98058.06;;;12.86;63.93
25947;BME280;13745;51.470;9.894;2023-03-25T03:58:09;98049.41;;;12.86;63.78
25947;BME280;13745;51.470;9.894;2023-03-25T04:01:01;98050.41;;;12.83;64.12
25947;BME280;13745;51.470;9.894;2023-03-25T04:03:51;98064.38;;;12.81;64.06
25947;BME280;13745;51.470;9.894;2023-03-25T04:06:43;98057.47;;;12.80;64.21
25947;BME280;13745;51.470;9.894;2023-03-25T04:09:32;98085.31;;;12.78;64.05
25947;BME280;13745;51.470;9.894;2023-03-25T04:12:27;98073.28;;;12.75;64.28
25947;BME280;13745;51.470;9.894;2023-03-25T04:15:14;98071.56;;;12.74;64.32
25947;BME280;13745;51.470;9.894;2023-03-25T04:17:59;98073.41;;;12.72;64.14
25947;BME280;13745;51.470;9.894;2023-03-25T04:20:47;98070.88;;;12.71;64.14
25947;BME280;13745;51.470;9.894;2023-03-25T04:23:33;98064.84;;;12.70;64.19
25947;BME280;13745;51.470;9.894;2023-03-25T04:26:20;98079.66;;;12.68;64.11
25947;BME280;13745;51.470;9.894;2023-03-25T04:29:05;98071.13;;;12.64;64.09
25947;BME280;13745;51.470;9.894;2023-03-25T04:31:52;98073.81;;;12.63;64.15
25947;BME280;13745;51.470;9.894;2023-03-25T04:34:38;98067.84;;;12.61;64.21
25947;BME280;13745;51.470;9.894;2023-03-25T04:37:26;98075.72;;;12.59;64.35
25947;BME280;13745;51.470;9.894;2023-03-25T04:40:12;98059.31;;;12.57;64.13
25947;BME280;13745;51.470;9.894;2023-03-25T04:42:58;98077.50;;;12.57;64.09
25947;BME280;13745;51.470;9.894;2023-03-25T04:45:44;98075.03;;;12.54;64.17
25947;BME280;13745;51.470;9.894;2023-03-25T04:48:36;98063.81;;;12.54;64.45
25947;BME280;13745;51.470;9.894;2023-03-25T04:51:24;98074.34;;;12.51;64.36
25947;BME280;13745;51.470;9.894;2023-03-25T04:54:11;98077.84;;;12.50;64.54
25947;BME280;13745;51.470;9.894;2023-03-25T04:56:56;98085.66;;;12.50;64.44
25947;BME280;13745;51.470;9.894;2023-03-25T04:59:41;98084.78;;;12.49;64.73
25947;BME280;13745;51.470;9.894;2023-03-25T05:02:26;98078.69;;;12.50;64.71
25947;BME280;13745;51.470;9.894;2023-03-25T05:05:14;98080.44;;;12.50;64.82
25947;BME280;13745;51.470;9.894;2023-03-25T05:08:01;98077.84;;;12.50;65.05
25947;BME280;13745;51.470;9.894;2023-03-25T05:10:48;98064.06;;;12.48;64.85
25947;BME280;13745;51.470;9.894;2023-03-25T05:13:33;98069.25;;;12.48;64.99
25947;BME280;13745;51.470;9.894;2023-03-25T05:16:18;98075.44;;;12.45;65.06
25947;BME280;13745;51.470;9.894;2023-03-25T05:19:04;98072.00;;;12.45;65.07
25947;BME280;13745;51.470;9.894;2023-03-25T05:21:49;98065.19;;;12.42;65.17
25947;BME280;13745;51.470;9.894;2023-03-25T05:24:35;98071.25;;;12.41;65.21
25947;BME280;13745;51.470;9.894;2023-03-25T05:27:22;98060.03;;;12.41;65.12
25947;BME280;13745;51.470;9.894;2023-03-25T05:30:08;98063.59;;;12.38;65.01
25947;BME280;13745;51.470;9.894;2023-03-25T05:32:53;98070.56;;;12.37;65.15
25947;BME280;13745;51.470;9.894;2023-03-25T05:35:40;98070.56;;;12.37;65.07
25947;BME280;13745;51.470;9.894;2023-03-25T05:38:26;98098.31;;;12.37;65.08
25947;BME280;13745;51.470;9.894;2023-03-25T05:41:11;98084.53;;;12.35;64.93
25947;BME280;13745;51.470;9.894;2023-03-25T05:44:01;98085.44;;;12.34;64.85
25947;BME280;13745;51.470;9.894;2023-03-25T05:46:46;98084.59;;;12.33;65.02
25947;BME280;13745;51.470;9.894;2023-03-25T05:49:31;98090.69;;;12.32;64.82
25947;BME280;13745;51.470;9.894;2023-03-25T05:52:16;98102.81;;;12.32;64.65
25947;BME280;13745;51.470;9.894;2023-03-25T05:55:02;98099.44;;;12.30;65.00
25947;BME280;13745;51.470;9.894;2023-03-25T05:57:48;98094.31;;;12.28;64.82
25947;BME280;13745;51.470;9.894;2023-03-25T06:00:34;98094.41;;;12.27;64.73
25947;BME280;13745;51.470;9.894;2023-03-25T06:03:20;98098.84;;;12.23;64.88
25947;BME280;13745;51.470;9.894;2023-03-25T06:06:09;98093.72;;;12.22;64.84
25947;BME280;13745;51.470;9.894;2023-03-25T06:08:56;98099.91;;;12.19;64.58
25947;BME280;13745;51.470;9.894;2023-03-25T06:11:42;98098.28;;;12.17;64.79
25947;BME280;13745;51.470;9.894;2023-03-25T06:14:27;98099.16;;;12.16;64.64
25947;BME280;13745;51.470;9.894;2023-03-25T06:17:14;98101.97;;;12.11;64.66
25947;BME280;13745;51.470;9.894;2023-03-25T06:20:01;98115.78;;;12.12;64.58
25947;BME280;13745;51.470;9.894;2023-03-25T06:22:53;98116.81;;;12.07;64.64
25947;BME280;13745;51.470;9.894;2023-03-25T06:25:39;98111.69;;;12.06;64.34
25947;BME280;13745;51.470;9.894;2023-03-25T06:28:24;98112.59;;;12.05;64.40
25947;BME280;13745;51.470;9.894;2023-03-25T06:31:12;98115.31;;;12.02;64.42
25947;BME280;13745;51.470;9.894;2023-03-25T06:34:01;98113.56;;;12.02;64.31
25947;BME280;13745;51.470;9.894;2023-03-25T06:36:46;98123.88;;;12.04;64.48
25947;BME280;13745;51.470;9.894;2023-03-25T06:39:33;98122.00;;;12.07;64.29
25947;BME280;13745;51.470;9.894;2023-03-25T06:42:23;98128.00;;;12.09;64.36
25947;BME280;13745;51.470;9.894;2023-03-25T06:45:34;98123.38;;;12.16;64.21
25947;BME280;13745;51.470;9.894;2023-03-25T06:48:44;98125.66;;;12.25;64.21
25947;BME280;13745;51.470;9.894;2023-03-25T06:51:30;98121.69;;;12.37;63.98
25947;BME280;13745;51.470;9.894;2023-03-25T06:54:16;98125.28;;;12.55;64.21
25947;BME280;13745;51.470;9.894;2023-03-25T06:57:01;98125.34;;;12.74;64.00
25947;BME280;13745;51.470;9.894;2023-03-25T06:59:46;98136.75;;;12.91;63.71
25947;BME280;13745;51.470;9.894;2023-03-25T07:02:32;98131.75;;;13.06;63.54
25947;BME280;13745;51.470;9.894;2023-03-25T07:05:17;98131.44;;;13.13;63.40
25947;BME280;13745;51.470;9.894;2023-03-25T07:08:04;98136.56;;;13.15;63.31
25947;BME280;13745;51.470;9.894;2023-03-25T07:10:49;98124.25;;;13.20;63.07
25947;BME280;13745;51.470;9.894;2023-03-25T07:13:34;98126.69;;;13.23;63.36
25947;BME280;13745;51.470;9.894;2023-03-25T07:16:19;98123.19;;;13.24;62.90
25947;BME280;13745;51.470;9.894;2023-03-25T07:19:05;98121.63;;;13.20;62.83
25947;BME280;13745;51.470;9.894;2023-03-25T07:21:50;98124.16;;;13.21;62.84
25947;BME280;13745;51.470;9.894;2023-03-25T07:24:36;98113.50;;;13.28;62.70
25947;BME280;13745;51.470;9.894;2023-03-25T07:27:22;98130.25;;;13.41;62.55
25947;BME280;13745;51.470;9.894;2023-03-25T07:30:16;98123.56;;;13.54;62.32
25947;BME280;13745;51.470;9.894;2023-03-25T07:33:01;98123.00;;;13.66;61.75
25947;BME280;13745;51.470;9.894;2023-03-25T07:35:46;98117.22;;;13.78;62.00
25947;BME280;13745;51.470;9.894;2023-03-25T07:38:32;98104.59;;;13.88;61.78
25947;BME280;13745;51.470;9.894;2023-03-25T07:41:19;98116.22;;;14.00;61.63
25947;BME280;13745;51.470;9.894;2023-03-25T07:44:20;98098.97;;;14.15;61.74
25947;BME280;13745;51.470;9.894;2023-03-25T07:47:07;98112.56;;;14.21;61.25
25947;BME280;13745;51.470;9.894;2023-03-25T07:49:51;98107.28;;;14.23;61.10
25947;BME280;13745;51.470;9.894;2023-03-25T07:52:37;98113.41;;;14.22;61.23
25947;BME280;13745;51.470;9.894;2023-03-25T07:55:22;98102.94;;;14.23;60.94
25947;BME280;13745;51.470;9.894;2023-03-25T07:58:08;98109.47;;;14.32;61.19
25947;BME280;13745;51.470;9.894;2023-03-25T08:00:55;98105.59;;;14.39;61.26
25947;BME280;13745;51.470;9.894;2023-03-25T08:03:40;98105.13;;;14.50;61.60
25947;BME280;13745;51.470;9.894;2023-03-25T08:06:25;98112.94;;;14.67;61.28
25947;BME280;13745;51.470;9.894;2023-03-25T08:09:10;98125.44;;;14.78;60.91
25947;BME280;13745;51.470;9.894;2023-03-25T08:11:55;98114.16;;;14.77;60.62
25947;BME280;13745;51.470;9.894;2023-03-25T08:14:42;98107.25;;;14.76;60.65
25947;BME280;13745;51.470;9.894;2023-03-25T08:17:27;98110.16;;;14.87;60.65
25947;BME280;13745;51.470;9.894;2023-03-25T08:20:13;98115.91;;;14.94;60.38
25947;BME280;13745;51.470;9.894;2023-03-25T08:22:58;98106.75;;;15.03;60.25
25947;BME280;13745;51.470;9.894;2023-03-25T08:25:44;98113.13;;;15.14;60.04
25947;BME280;13745;51.470;9.894;2023-03-25T08:28:31;98124.22;;;15.18;59.88
25947;BME280;13745;51.470;9.894;2023-03-25T08:31:18;98096.34;;;15.18;59.69
25947;BME280;13745;51.470;9.894;2023-03-25T08:34:05;98113.47;;;15.24;59.46
25947;BME280;13745;51.470;9.894;2023-03-25T08:36:51;98126.19;;;15.30;59.31
25947;BME280;13745;51.470;9.894;2023-03-25T08:39:36;98145.25;;;15.32;59.13
25947;BME280;13745;51.470;9.894;2023-03-25T08:42:22;98103.38;;;15.34;59.39
25947;BME280;13745;51.470;9.894;2023-03-25T08:45:09;98116.97;;;15.40;59.39
25947;BME280;13745;51.470;9.894;2023-03-25T08:47:55;98076.78;;;15.59;59.48
25947;BME280;13745;51.470;9.894;2023-03-25T08:50:41;98109.34;;;15.85;59.31
25947;BME280;13745;51.470;9.894;2023-03-25T08:53:26;98116.25;;;16.01;58.75
25947;BME280;13745;51.470;9.894;2023-03-25T08:56:11;98102.00;;;16.37;57.98
25947;BME280;13745;51.470;9.894;2023-03-25T08:58:56;98100.91;;;16.71;58.06
25947;BME280;13745;51.470;9.894;2023-03-25T09:01:41;98115.66;;;17.02;57.60
25947;BME280;13745;51.470;9.894;2023-03-25T09:04:29;98095.75;;;17.00;56.82
25947;BME280;13745;51.470;9.894;2023-03-25T09:07:14;98103.66;;;16.84;56.06
25947;BME280;13745;51.470;9.894;2023-03-25T09:10:03;98119.19;;;16.57;56.29
25947;BME280;13745;51.470;9.894;2023-03-25T09:12:49;98112.31;;;16.40;56.30
25947;BME280;13745;51.470;9.894;2023-03-25T09:15:34;98111.81;;;16.34;56.29
25947;BME280;13745;51.470;9.894;2023-03-25T09:18:19;98119.25;;;16.25;56.47
25947;BME280;13745;51.470;9.894;2023-03-25T09:21:06;98118.09;;;16.15;56.66
25947;BME280;13745;51.470;9.894;2023-03-25T09:23:51;98114.06;;;16.10;56.55
25947;BME280;13745;51.470;9.894;2023-03-25T09:26:36;98100.63;;;16.32;56.74
25947;BME280;13745;51.470;9.894;2023-03-25T09:29:21;98093.91;;;16.42;56.94
25947;BME280;13745;51.470;9.894;2023-03-25T09:32:06;98094.31;;;16.50;56.63
25947;BME280;13745;51.470;9.894;2023-03-25T09:34:52;98102.69;;;16.71;56.56
25947;BME280;13745;51.470;9.894;2023-03-25T09:37:38;98109.16;;;16.79;56.16
25947;BME280;13745;51.470;9.894;2023-03-25T09:40:23;98100.91;;;17.16;55.89
25947;BME280;13745;51.470;9.894;2023-03-25T09:43:28;98099.81;;;18.16;55.45
25947;BME280;13745;51.470;9.894;2023-03-25T09:46:17;98093.16;;;18.90;54.70
25947;BME280;13745;51.470;9.894;2023-03-25T09:49:02;98096.94;;;19.24;53.53
25947;BME280;13745;51.470;9.894;2023-03-25T09:51:49;98098.81;;;19.35;52.89
25947;BME280;13745;51.470;9.894;2023-03-25T09:54:38;98073.91;;;19.28;52.43
25947;BME280;13745;51.470;9.894;2023-03-25T09:57:26;98085.28;;;19.28;51.94
25947;BME280;13745;51.470;9.894;2023-03-25T10:00:17;98076.31;;;19.93;51.49
25947;BME280;13745;51.470;9.894;2023-03-25T10:03:13;98076.09;;;20.90;50.88
25947;BME280;13745;51.470;9.894;2023-03-25T10:06:11;98106.88;;;21.01;50.09
25947;BME280;13745;51.470;9.894;2023-03-25T10:09:11;98093.34;;;20.48;49.38
25947;BME280;13745;51.470;9.894;2023-03-25T10:12:09;98086.88;;;19.80;50.15
25947;BME280;13745;51.470;9.894;2023-03-25T10:15:08;98088.22;;;19.24;50.37
25947;BME280;13745;51.470;9.894;2023-03-25T10:18:06;98094.31;;;18.73;51.30
25947;BME280;13745;51.470;9.894;2023-03-25T10:21:02;98092.06;;;18.28;51.78
25947;BME280;13745;51.470;9.894;2023-03-25T10:23:57;98124.44;;;17.87;52.85
25947;BME280;13745;51.470;9.894;2023-03-25T10:26:51;98136.44;;;17.48;53.56
25947;BME280;13745;51.470;9.894;2023-03-25T10:29:41;98134.94;;;17.16;54.14
25947;BME280;13745;51.470;9.894;2023-03-25T10:32:31;98125.19;;;16.89;54.94
25947;BME280;13745;51.470;9.894;2023-03-25T10:35:20;98125.34;;;16.72;55.28
25947;BME280;13745;51.470;9.894;2023-03-25T10:38:12;98121.06;;;16.55;55.75
25947;BME280;13745;51.470;9.894;2023-03-25T10:41:10;98114.94;;;17.72;55.14
25947;BME280;13745;51.470;9.894;2023-03-25T10:43:56;98109.88;;;18.49;54.37
25947;BME280;13745;51.470;9.894;2023-03-25T10:46:44;98115.69;;;18.55;53.30
25947;BME280;13745;51.470;9.894;2023-03-25T10:49:32;98112.63;;;18.61;52.40
25947;BME280;13745;51.470;9.894;2023-03-25T10:52:18;98128.47;;;18.59;51.67
25947;BME280;13745;51.470;9.894;2023-03-25T10:55:04;98114.84;;;18.54;51.45
25947;BME280;13745;51.470;9.894;2023-03-25T10:57:54;98111.13;;;18.44;51.29
25947;BME280;13745;51.470;9.894;2023-03-25T11:00:40;98123.03;;;18.22;50.99
25947;BME280;13745;51.470;9.894;2023-03-25T11:03:29;98110.69;;;18.10;51.30
25947;BME280;13745;51.470;9.894;2023-03-25T11:06:22;98109.97;;;19.00;51.09
25947;BME280;13745;51.470;9.894;2023-03-25T11:09:23;98107.22;;;19.40;50.62
25947;BME280;13745;51.470;9.894;2023-03-25T11:12:08;98109.47;;;19.21;50.28
25947;BME280;13745;51.470;9.894;2023-03-25T11:14:54;98112.31;;;19.05;50.01
25947;BME280;13745;51.470;9.894;2023-03-25T11:17:40;98098.22;;;18.80;50.57
25947;BME280;13745;51.470;9.894;2023-03-25T11:20:29;98099.56;;;20.47;48.97
25947;BME280;13745;51.470;9.894;2023-03-25T11:23:21;98070.97;;;22.95;46.77
25947;BME280;13745;51.470;9.894;2023-03-25T11:26:11;98075.91;;;25.26;46.52
25947;BME280;13745;51.470;9.894;2023-03-25T11:29:00;98070.34;;;27.08;43.02
25947;BME280;13745;51.470;9.894;2023-03-25T11:31:55;98077.78;;;28.15;41.85
25947;BME280;13745;51.470;9.894;2023-03-25T11:34:40;98065.47;;;29.12;40.06
25947;BME280;13745;51.470;9.894;2023-03-25T11:37:28;98074.41;;;29.35;38.92
25947;BME280;13745;51.470;9.894;2023-03-25T11:40:16;98078.16;;;28.53;38.40
25947;BME280;13745;51.470;9.894;2023-03-25T11:43:02;98077.78;;;27.31;39.44
25947;BME280;13745;51.470;9.894;2023-03-25T11:45:47;98077.53;;;26.19;39.78
25947;BME280;13745;51.470;9.894;2023-03-25T11:48:36;98083.75;;;24.98;40.67
25947;BME280;13745;51.470;9.894;2023-03-25T11:51:26;98084.19;;;23.87;40.89
25947;BME280;13745;51.470;9.894;2023-03-25T11:54:14;98086.63;;;23.08;42.09
25947;BME280;13745;51.470;9.894;2023-03-25T11:57:02;98092.16;;;22.63;42.42
25947;BME280;13745;51.470;9.894;2023-03-25T11:59:49;98083.13;;;22.45;43.42
25947;BME280;13745;51.470;9.894;2023-03-25T12:02:41;98088.53;;;22.00;43.64
25947;BME280;13745;51.470;9.894;2023-03-25T12:05:26;98086.94;;;21.54;43.70
25947;BME280;13745;51.470;9.894;2023-03-25T12:08:13;98085.72;;;21.02;44.23
25947;BME280;13745;51.470;9.894;2023-03-25T12:11:04;98093.59;;;20.45;45.03
25947;BME280;13745;51.470;9.894;2023-03-25T12:14:06;98091.47;;;19.89;45.59
25947;BME280;13745;51.470;9.894;2023-03-25T12:16:59;98098.94;;;19.33;46.44
25947;BME280;13745;51.470;9.894;2023-03-25T12:19:51;98098.94;;;18.83;47.46
25947;BME280;13745;51.470;9.894;2023-03-25T12:22:59;98094.53;;;18.43;48.10
25947;BME280;13745;51.470;9.894;2023-03-25T12:25:53;98085.88;;;18.29;48.78
25947;BME280;13745;51.470;9.894;2023-03-25T12:28:59;98075.28;;;18.70;49.48
25947;BME280;13745;51.470;9.894;2023-03-25T12:31:55;98075.72;;;19.02;49.71
25947;BME280;13745;51.470;9.894;2023-03-25T12:34:52;98078.03;;;19.32;49.33
25947;BME280;13745;51.470;9.894;2023-03-25T12:37:55;98075.47;;;19.56;48.80
25947;BME280;13745;51.470;9.894;2023-03-25T12:40:57;98061.69;;;19.52;48.56
25947;BME280;13745;51.470;9.894;2023-03-25T12:43:57;98069.91;;;19.35;48.32
25947;BME280;13745;51.470;9.894;2023-03-25T12:47:07;98072.69;;;19.08;48.42
25947;BME280;13745;51.470;9.894;2023-03-25T12:50:18;98072.47;;;18.73;48.44
25947;BME280;13745;51.470;9.894;2023-03-25T12:53:20;98065.16;;;18.38;48.84
25947;BME280;13745;51.470;9.894;2023-03-25T12:56:33;98070.41;;;18.11;49.42
25947;BME280;13745;51.470;9.894;2023-03-25T12:59:46;98063.69;;;18.07;49.62
25947;BME280;13745;51.470;9.894;2023-03-25T13:02:53;98061.00;;;18.21;49.79
25947;BME280;13745;51.470;9.894;2023-03-25T13:05:47;98051.38;;;18.35;49.80
25947;BME280;13745;51.470;9.894;2023-03-25T13:08:37;98051.59;;;18.44;49.58
25947;BME280;13745;51.470;9.894;2023-03-25T13:11:30;98051.63;;;18.57;49.15
25947;BME280;13745;51.470;9.894;2023-03-25T13:14:22;98043.75;;;18.57;48.34
25947;BME280;13745;51.470;9.894;2023-03-25T13:17:14;98044.88;;;18.53;48.20
25947;BME280;13745;51.470;9.894;2023-03-25T13:20:07;98041.88;;;18.46;48.16
25947;BME280;13745;51.470;9.894;2023-03-25T13:22:56;98040.69;;;18.50;48.32
25947;BME280;13745;51.470;9.894;2023-03-25T13:25:47;98035.66;;;18.60;48.17
25947;BME280;13745;51.470;9.894;2023-03-25T13:28:37;98038.09;;;18.63;48.33
25947;BME280;13745;51.470;9.894;2023-03-25T13:31:26;98043.06;;;18.68;48.06
25947;BME280;13745;51.470;9.894;2023-03-25T13:34:18;98034.81;;;18.60;47.94
25947;BME280;13745;51.470;9.894;2023-03-25T13:37:11;98048.78;;;18.47;47.88
25947;BME280;13745;51.470;9.894;2023-03-25T13:40:11;98043.28;;;18.25;48.21
25947;BME280;13745;51.470;9.894;2023-03-25T13:43:04;98035.56;;;18.09;48.50
25947;BME280;13745;51.470;9.894;2023-03-25T13:45:57;98054.81;;;17.95;48.81
25947;BME280;13745;51.470;9.894;2023-03-25T13:48:48;98054.91;;;17.81;49.11
25947;BME280;13745;51.470;9.894;2023-03-25T13:51:36;98052.28;;;17.67;48.99
25947;BME280;13745;51.470;9.894;2023-03-25T13:54:25;98038.47;;;17.51;49.60
25947;BME280;13745;51.470;9.894;2023-03-25T13:57:26;98038.31;;;17.39;50.00
25947;BME280;13745;51.470;9.894;2023-03-25T14:00:28;98041.56;;;17.29;50.04
25947;BME280;13745;51.470;9.894;2023-03-25T14:03:58;98033.66;;;17.16;50.40
25947;BME280;13745;51.470;9.894;2023-03-25T14:07:23;98050.19;;;17.02;50.71
25947;BME280;13745;51.470;9.894;2023-03-25T14:10:34;98046.19;;;16.97;50.98
25947;BME280;13745;51.470;9.894;2023-03-25T14:13:24;98066.09;;;17.28;50.95
25947;BME280;13745;51.470;9.894;2023-03-25T14:16:13;98054.75;;;17.41;50.76
25947;BME280;13745;51.470;9.894;2023-03-25T14:19:01;98047.00;;;17.40;50.87
25947;BME280;13745;51.470;9.894;2023-03-25T14:21:48;98036.25;;;17.30;50.74
25947;BME280;13745;51.470;9.894;2023-03-25T14:24:36;98045.91;;;17.16;50.91
25947;BME280;13745;51.470;9.894;2023-03-25T14:27:23;98046.94;;;16.99;51.23
25947;BME280;13745;51.470;9.894;2023-03-25T14:30:18;98066.09;;;16.85;51.90
25947;BME280;13745;51.470;9.894;2023-03-25T14:33:07;98072.34;;;16.82;52.26
25947;BME280;13745;51.470;9.894;2023-03-25T14:35:55;98059.44;;;16.79;51.99
25947;BME280;13745;51.470;9.894;2023-03-25T14:38:55;98065.78;;;16.75;52.51
25947;BME280;13745;51.470;9.894;2023-03-25T14:41:56;98065.53;;;16.80;52.57
25947;BME280;13745;51.470;9.894;2023-03-25T14:44:42;98062.91;;;16.80;52.58
25947;BME280;13745;51.470;9.894;2023-03-25T14:47:33;98062.34;;;16.75;52.85
25947;BME280;13745;51.470;9.894;2023-03-25T14:50:30;98057.38;;;16.70;53.34
25947;BME280;13745;51.470;9.894;2023-03-25T14:53:17;98046.41;;;16.64;53.44
25947;BME280;13745;51.470;9.894;2023-03-25T14:56:05;98055.56;;;16.56;53.37
25947;BME280;13745;51.470;9.894;2023-03-25T14:58:55;98045.34;;;16.52;53.67
25947;BME280;13745;51.470;9.894;2023-03-25T15:01:43;98047.03;;;16.53;53.90